Météo Nord-Pas-de-Calais   La météo au plus près de chez vous

Station météorologique

Observations météo à Quimper (29216)

29216001 82 m Dernier relevé à 12:42
19.3°C
Humidité 60 % Vent 6.1 km/h 1023.6 hPa

Journée consultée

Mardi 1 Septembre 2026

Synthèse de la journée

Périodes de référence en UTC

Température maximale

21.1°C

à 12:00

06h 06h

Température minimale

11°C

à 07:00

18h 18h

Rafale maximale

16 km/h

à 11:36

00h 00h

Précipitations

0 mm

Cumul quotidien

06h 06h

Ensoleillement

3h 30 mins

Durée quotidienne

00h 00h

Graphiques de la journée

Heure locale Réduire

Données détaillées

Relevés météo

Pas de 6 minutes Afficher les relevés infra-horaires
Relevés météo détaillés à Quimper pour le Mardi 1 Septembre 2026
Heure Température °C Point de rosée °C Humidité % Vent moyen (raf.), km/h Précipitations mm Température à 10 cm °C Température à 20 cm °C Température à 50 cm °C Visibilité m État du sol   Ensoleillement min Rayonnement global W/m² Pression hPa Nébulosité Octas
12:42 19.3 °C 11.6 °C 61 % 6 km/h (12 km/h) 0 mm0 mm 18.2 °C 18.6 °C 19.5 °C 60000 m 0   0 min 60.3 W/m² 1023.2 hPa
12:36 19.3 °C 11.8 °C 62 % 5 km/h (11 km/h) 0 mm0 mm 18.2 °C 18.5 °C 19.5 °C 60000 m 0   0 min 76.3 W/m² 1023.3 hPa
12:30 19.5 °C 12 °C 62 % 6 km/h (10 km/h) 0 mm0 mm 18.1 °C 18.5 °C 19.4 °C 60000 m 0   1 min 136.5 W/m² 1023.3 hPa
12:24 19.4 °C 11.7 °C 61 % 6 km/h (11 km/h) 0 mm0 mm 18.1 °C 18.5 °C 19.4 °C 60000 m 0   0 min 86.4 W/m² 1023.3 hPa
12:18 19.6 °C 11.6 °C 60 % 5 km/h (11 km/h) 0 mm0 mm 18 °C 18.6 °C 19.5 °C 60000 m 0   0 min 84.5 W/m² 1023.3 hPa
12:12 19.6 °C 11.1 °C 58 % 6 km/h (11 km/h) 0 mm0 mm 18 °C 18.5 °C 19.5 °C 60000 m 0   0 min 87.6 W/m² 1023.4 hPa
12:06 20.4 °C 11.9 °C 58 % 6 km/h (11 km/h) 0 mm0 mm 18 °C 18.5 °C 19.4 °C 60000 m 0   4 min 229.2 W/m² 1023.4 hPa
12:00 20.8 °C 12 °C 57 % 6 km/h (15 km/h) 0 mm0 mm 18 °C 18.6 °C 19.5 °C 60000 m 0   6 min 278.2 W/m² 1023.4 hPa 8 Octas
11:54 20.8 °C 12.5 °C 59 % 8 km/h (15 km/h) 0 mm0 mm 17.9 °C 18.6 °C 19.5 °C 60000 m 0   6 min 267.3 W/m² 1023.4 hPa
11:48 20.5 °C 11.7 °C 57 % 6 km/h (15 km/h) 0 mm0 mm 17.9 °C 18.6 °C 19.5 °C 60000 m 0   6 min 260.8 W/m² 1023.6 hPa
11:42 20.5 °C 12.5 °C 60 % 6 km/h (16 km/h) 0 mm0 mm 17.9 °C 18.6 °C 19.5 °C 60000 m 0   6 min 254.3 W/m² 1023.6 hPa
11:36 20.1 °C 12.1 °C 60 % 5 km/h (16 km/h) 0 mm0 mm 17.9 °C 18.5 °C 19.5 °C 60000 m 0   6 min 241 W/m² 1023.7 hPa
11:30 19.9 °C 11.6 °C 59 % 4 km/h (12 km/h) 0 mm0 mm 17.9 °C 18.6 °C 19.4 °C 60000 m 0   6 min 236.4 W/m² 1023.7 hPa
11:24 20 °C 12.5 °C 62 % 3 km/h (11 km/h) 0 mm0 mm 17.9 °C 18.6 °C 19.5 °C 60000 m 0   6 min 222.4 W/m² 1023.7 hPa
11:18 19.2 °C 12.2 °C 64 % 5 km/h (8 km/h) 0 mm0 mm 17.8 °C 18.6 °C 19.5 °C 60000 m 0   6 min 224.5 W/m² 1023.8 hPa
11:12 19.4 °C 12.2 °C 63 % 6 km/h (12 km/h) 0 mm0 mm 17.8 °C 18.6 °C 19.5 °C 60000 m 0   6 min 218.4 W/m² 1023.7 hPa
11:06 19.3 °C 12.6 °C 65 % 5 km/h (12 km/h) 0 mm0 mm 17.9 °C 18.6 °C 19.5 °C 60000 m 0   6 min 213.7 W/m² 1023.7 hPa
11:00 18.9 °C 12.2 °C 65 % 7 km/h (11 km/h) 0 mm0 mm 17.8 °C 18.6 °C 19.5 °C 60000 m 0   6 min 202.7 W/m² 1023.8 hPa
10:54 19 °C 13.8 °C 72 % 8 km/h (12 km/h) 0 mm0 mm 17.8 °C 18.7 °C 19.5 °C 60000 m 0   6 min 197.9 W/m² 1023.7 hPa
10:48 18.6 °C 13.7 °C 73 % 8 km/h (12 km/h) 0 mm0 mm 17.8 °C 18.6 °C 19.5 °C 60000 m 0   6 min 185.1 W/m² 1023.8 hPa
10:42 18.2 °C 13.9 °C 76 % 7 km/h (12 km/h) 0 mm0 mm 17.8 °C 18.7 °C 19.5 °C 60000 m 0   6 min 153.2 W/m² 1023.8 hPa
10:36 18.1 °C 13.6 °C 75 % 5 km/h (10 km/h) 0 mm0 mm 17.9 °C 18.7 °C 19.5 °C 60000 m 0   6 min 148 W/m² 1023.8 hPa
10:30 18.1 °C 14 °C 77 % 5 km/h (9 km/h) 0 mm0 mm 17.8 °C 18.7 °C 19.5 °C 59680 m 0   6 min 153.1 W/m² 1023.7 hPa
10:24 18 °C 14.5 °C 80 % 5 km/h (8 km/h) 0 mm0 mm 17.8 °C 18.7 °C 19.5 °C 59680 m 0   6 min 147.2 W/m² 1023.7 hPa
10:18 18 °C 14.7 °C 81 % 4 km/h (8 km/h) 0 mm0 mm 17.8 °C 18.7 °C 19.5 °C 59180 m 0   6 min 131.3 W/m² 1023.7 hPa
10:12 17.5 °C 14.6 °C 83 % 5 km/h (8 km/h) 0 mm0 mm 17.8 °C 18.7 °C 19.5 °C 58320 m 0   6 min 139.2 W/m² 1023.6 hPa
10:06 17.5 °C 14.6 °C 83 % 4 km/h (7 km/h) 0 mm0 mm 17.8 °C 18.8 °C 19.5 °C 57860 m 0   6 min 131.7 W/m² 1023.6 hPa
10:00 16.8 °C 13.7 °C 82 % 5 km/h (7 km/h) 0 mm0 mm 17.9 °C 18.8 °C 19.5 °C 56820 m 0   6 min 98.3 W/m² 1023.6 hPa
09:54 16.9 °C 13.8 °C 82 % 4 km/h (6 km/h) 0 mm0 mm 17.8 °C 18.8 °C 19.5 °C 58550 m 0   4 min 87.1 W/m² 1023.6 hPa
09:48 16.8 °C 13.7 °C 82 % 3 km/h (5 km/h) 0 mm0 mm 17.9 °C 18.8 °C 19.5 °C 57080 m 0   6 min 101.7 W/m² 1023.5 hPa
09:42 16.6 °C 13.9 °C 84 % 3 km/h (6 km/h) 0 mm0 mm 17.9 °C 18.8 °C 19.5 °C 48520 m 0   4 min 88.6 W/m² 1023.5 hPa
09:36 15.8 °C 13.8 °C 88 % 3 km/h (6 km/h) 0 mm0 mm 17.9 °C 18.8 °C 19.4 °C 54560 m 0   6 min 107.3 W/m² 1023.6 hPa
09:30 16 °C 14.2 °C 89 % 2 km/h (4 km/h) 0 mm0 mm 17.9 °C 18.8 °C 19.5 °C 58040 m 0   6 min 103.8 W/m² 1023.4 hPa
09:24 15.3 °C 13.5 °C 89 % 2 km/h (3 km/h) 0 mm0 mm 17.9 °C 18.8 °C 19.5 °C 59350 m 0   6 min 97.2 W/m² 1023.5 hPa
09:18 14.9 °C 13.3 °C 90 % 2 km/h (4 km/h) 0 mm0 mm 18 °C 18.8 °C 19.5 °C 59360 m 0   6 min 87.8 W/m² 1023.4 hPa
09:12 14.4 °C 13.3 °C 93 % 3 km/h (4 km/h) 0 mm0 mm 18 °C 18.9 °C 19.5 °C 59530 m 0   6 min 79.6 W/m² 1023.4 hPa
09:06 14 °C 13 °C 94 % 3 km/h (4 km/h) 0 mm0 mm 18 °C 18.9 °C 19.5 °C 19960 m 0   6 min 74.1 W/m² 1023.3 hPa
09:00 13.7 °C 13.2 °C 97 % 3 km/h (6 km/h) 0 mm0 mm 18 °C 18.9 °C 19.5 °C 58250 m 0   6 min 69 W/m² 1023.4 hPa 7 Octas
08:54 13.3 °C 13 °C 98 % 3 km/h (6 km/h) 0 mm0 mm 18 °C 18.9 °C 19.5 °C 56910 m 0   6 min 64.6 W/m² 1023.4 hPa
08:48 13 °C 12.8 °C 99 % 3 km/h (4 km/h) 0 mm0 mm 18 °C 18.9 °C 19.5 °C 56950 m 0   6 min 59.5 W/m² 1023.4 hPa
08:42 12.6 °C 12.6 °C 100 % 2 km/h (4 km/h) 0 mm0 mm 18 °C 19 °C 19.5 °C 19260 m 0   6 min 54.3 W/m² 1023.4 hPa
08:36 12.2 °C 12.2 °C 100 % 2 km/h (3 km/h) 0 mm0 mm 18 °C 18.9 °C 19.5 °C 15450 m 0   5 min 42.5 W/m² 1023.5 hPa
08:30 11.7 °C 11.5 °C 99 % 0 km/h (3 km/h) 0 mm0 mm 18.1 °C 19 °C 19.5 °C 15570 m 0   0 min 18.8 W/m² 1023.4 hPa
08:24 11.6 °C 11.4 °C 99 % 0 km/h (3 km/h) 0 mm0 mm 18.1 °C 19 °C 19.5 °C 18590 m 0   0 min 12.9 W/m² 1023.4 hPa
08:18 11.7 °C 11.5 °C 99 % 2 km/h (3 km/h) 0 mm0 mm 18.1 °C 19 °C 19.5 °C 44420 m 0   0 min 12.7 W/m² 1023.2 hPa
08:12 11.6 °C 11.4 °C 99 % 3 km/h (3 km/h) 0 mm0 mm 18.1 °C 19 °C 19.5 °C 45140 m 0   0 min 10.3 W/m² 1023.2 hPa
08:06 11.7 °C 11.5 °C 99 % 3 km/h (3 km/h) 0 mm0 mm 18.2 °C 19 °C 19.5 °C 46930 m 0   0 min 8.7 W/m² 1023.2 hPa
08:00 11.7 °C 11.5 °C 99 % 3 km/h (3 km/h) 0 mm0 mm 18.2 °C 19.1 °C 19.5 °C 46520 m 0   0 min 0 W/m² 1023.2 hPa 8 Octas
07:54 11.7 °C 11.7 °C 100 % 3 km/h (5 km/h) 0 mm0 mm 18.2 °C 19 °C 19.5 °C 44940 m 0   0 min 0 W/m² 1023.2 hPa
07:48 11.7 °C 11.7 °C 100 % 4 km/h (5 km/h) 0 mm0 mm 18.2 °C 19.1 °C 19.5 °C 45350 m 0   0 min 0 W/m² 1023.2 hPa
07:42 11.6 °C 11.6 °C 100 % 3 km/h (4 km/h) 0 mm0 mm 18.2 °C 19.1 °C 19.5 °C 46670 m 0   0 min 0 W/m² 1023.1 hPa
07:36 11.4 °C 11.4 °C 100 % 3 km/h (4 km/h) 0 mm0 mm 18.3 °C 19.1 °C 19.5 °C 46850 m 0   0 min 0 W/m² 1023.1 hPa
07:30 11.3 °C 11.1 °C 99 % 2 km/h (4 km/h) 0 mm0 mm 18.3 °C 19.1 °C 19.5 °C 43260 m 0   0 min 0 W/m² 1023 hPa
07:24 11.3 °C 11.3 °C 100 % 2 km/h (4 km/h) 0 mm0 mm 18.3 °C 19.1 °C 19.5 °C 18270 m 0   0 min 0 W/m² 1023 hPa
07:18 11 °C 10.8 °C 99 % 3 km/h (4 km/h) 0 mm0 mm 18.3 °C 19.2 °C 19.5 °C 17560 m 0   0 min 0 W/m² 1022.9 hPa
07:12 11.1 °C 10.9 °C 99 % 3 km/h (3 km/h) 0 mm0 mm 18.3 °C 19.2 °C 19.5 °C 18960 m 0   0 min 0 W/m² 1022.9 hPa
07:06 11 °C 10.8 °C 99 % 3 km/h (4 km/h) 0 mm0 mm 18.3 °C 19.2 °C 19.5 °C 18650 m 0   0 min 0 W/m² 1022.9 hPa
07:00 11 °C 10.8 °C 99 % 3 km/h (5 km/h) 0 mm0 mm 18.4 °C 19.2 °C 19.5 °C 19730 m 0   0 min 0 W/m² 1023 hPa 7 Octas
06:54 11.2 °C 11 °C 99 % 3 km/h (5 km/h) 0 mm0 mm 18.4 °C 19.2 °C 19.5 °C 39510 m 0   0 min 0 W/m² 1023 hPa
06:48 11.5 °C 11.3 °C 99 % 3 km/h (4 km/h) 0 mm0 mm 18.4 °C 19.2 °C 19.5 °C 19940 m 0   0 min 0 W/m² 1023 hPa
06:42 11.4 °C 11.2 °C 99 % 3 km/h (3 km/h) 0 mm0 mm 18.4 °C 19.3 °C 19.5 °C 19940 m 0   0 min 0 W/m² 1023 hPa
06:36 11.4 °C 11.2 °C 99 % 3 km/h (4 km/h) 0 mm0 mm 18.4 °C 19.3 °C 19.5 °C 19310 m 0   0 min 0 W/m² 1023 hPa
06:30 11.3 °C 11.1 °C 99 % 4 km/h (5 km/h) 0 mm0 mm 18.5 °C 19.3 °C 19.5 °C 17550 m 0   0 min 0 W/m² 1023.1 hPa
06:24 11.3 °C 11.1 °C 99 % 4 km/h (5 km/h) 0 mm0 mm 18.5 °C 19.3 °C 19.5 °C 16850 m 0   0 min 0 W/m² 1023.1 hPa
06:18 11.3 °C 11.1 °C 99 % 3 km/h (4 km/h) 0 mm0 mm 18.6 °C 19.3 °C 19.5 °C 14440 m 0   0 min 0 W/m² 1023.1 hPa
06:12 11.3 °C 11.1 °C 99 % 3 km/h (3 km/h) 0 mm0 mm 18.6 °C 19.4 °C 19.5 °C 17870 m 0   0 min 0 W/m² 1023 hPa
06:06 11.4 °C 11.2 °C 99 % 3 km/h (3 km/h) 0 mm0 mm 18.6 °C 19.3 °C 19.5 °C 39600 m 0   0 min 0 W/m² 1023 hPa
06:00 11.6 °C 11.4 °C 99 % 3 km/h (3 km/h) 0 mm0 mm 18.6 °C 19.4 °C 19.5 °C 40570 m 0   0 min 0 W/m² 1023 hPa 8 Octas
05:54 11.8 °C 11.8 °C 100 % 2 km/h (3 km/h) 0 mm0 mm 18.7 °C 19.4 °C 19.5 °C 39660 m 0   0 min 0 W/m² 1023 hPa
05:48 11.9 °C 11.9 °C 100 % 0 km/h (2 km/h) 0 mm0 mm 18.7 °C 19.4 °C 19.5 °C 45120 m 0   0 min 0 W/m² 1023.1 hPa
05:42 11.8 °C 11.8 °C 100 % 0 km/h (2 km/h) 0 mm0 mm 18.7 °C 19.4 °C 19.5 °C 19330 m 0   0 min 0 W/m² 1023.1 hPa
05:36 11.6 °C 11.6 °C 100 % 2 km/h (3 km/h) 0 mm0 mm 18.7 °C 19.5 °C 19.5 °C 18090 m 0   0 min 0 W/m² 1023.1 hPa
05:30 11.4 °C 11.2 °C 99 % 3 km/h (3 km/h) 0 mm0 mm 18.7 °C 19.5 °C 19.5 °C 15360 m 0   0 min 0 W/m² 1023.1 hPa
05:24 11.1 °C 10.9 °C 99 % 3 km/h (4 km/h) 0 mm0 mm 18.8 °C 19.5 °C 19.5 °C 16970 m 0   0 min 0 W/m² 1023.1 hPa
05:18 11.3 °C 11.1 °C 99 % 3 km/h (4 km/h) 0 mm0 mm 18.8 °C 19.5 °C 19.5 °C 18870 m 0   0 min 0 W/m² 1023.1 hPa
05:12 11.4 °C 11.2 °C 99 % 2 km/h (4 km/h) 0 mm0 mm 18.8 °C 19.5 °C 19.5 °C 18290 m 0   0 min 0 W/m² 1023.1 hPa
05:06 11.4 °C 11.2 °C 99 % 2 km/h (3 km/h) 0 mm0 mm 18.9 °C 19.5 °C 19.5 °C 16620 m 0   0 min 0 W/m² 1023.1 hPa
05:00 11.3 °C 11.1 °C 99 % 3 km/h (4 km/h) 0 mm0.2 mm 18.9 °C 19.6 °C 19.5 °C 16960 m 0   0 min 0 W/m² 1023.1 hPa
04:54 11.4 °C 11.2 °C 99 % 4 km/h (5 km/h) 0.2 mm0 mm 18.9 °C 19.6 °C 19.5 °C 18520 m 0   0 min 0 W/m² 1023.1 hPa
04:48 11.6 °C 11.4 °C 99 % 4 km/h (5 km/h) 0 mm0 mm 19 °C 19.6 °C 19.5 °C 19380 m 0   0 min 0 W/m² 1023.2 hPa
04:42 11.8 °C 11.8 °C 100 % 3 km/h (4 km/h) 0 mm0 mm 19 °C 19.6 °C 19.5 °C 14440 m 0   0 min 0 W/m² 1023.2 hPa
04:36 11.6 °C 11.4 °C 99 % 4 km/h (5 km/h) 0 mm0 mm 19 °C 19.6 °C 19.5 °C 9880 m 0   0 min 0 W/m² 1023.1 hPa
04:30 11.2 °C 10.9 °C 98 % 3 km/h (4 km/h) 0 mm0 mm 19 °C 19.6 °C 19.5 °C 9260 m 0   0 min 0 W/m² 1023.1 hPa
04:24 11.5 °C 11.3 °C 99 % 3 km/h (4 km/h) 0 mm0 mm 19.1 °C 19.6 °C 19.4 °C 14430 m 0   0 min 0 W/m² 1023.1 hPa
04:18 11.6 °C 11.4 °C 99 % 3 km/h (4 km/h) 0 mm0 mm 19.1 °C 19.7 °C 19.5 °C 14970 m 0   0 min 0 W/m² 1023.1 hPa
04:12 11.6 °C 11.4 °C 99 % 3 km/h (3 km/h) 0 mm0 mm 19.1 °C 19.7 °C 19.5 °C 15940 m 0   0 min 0 W/m² 1023.2 hPa
04:06 11.8 °C 11.6 °C 99 % 3 km/h (3 km/h) 0 mm0 mm 19.2 °C 19.7 °C 19.5 °C 18490 m 0   0 min 0 W/m² 1023.2 hPa
04:00 11.8 °C 11.6 °C 99 % 2 km/h (3 km/h) 0 mm0 mm 19.2 °C 19.7 °C 19.5 °C 17640 m 0   0 min 0 W/m² 1023.2 hPa 8 Octas
03:54 11.8 °C 11.6 °C 99 % 2 km/h (3 km/h) 0 mm0 mm 19.2 °C 19.7 °C 19.5 °C 16530 m 0   0 min 0 W/m² 1023.1 hPa
03:48 11.8 °C 11.6 °C 99 % 2 km/h (3 km/h) 0 mm0 mm 19.2 °C 19.7 °C 19.5 °C 16740 m 0   0 min 0 W/m² 1023.1 hPa
03:42 11.6 °C 11.4 °C 99 % 3 km/h (4 km/h) 0 mm0 mm 19.3 °C 19.7 °C 19.5 °C 17240 m 0   0 min 0 W/m² 1023.1 hPa
03:36 11.4 °C 11.1 °C 98 % 3 km/h (4 km/h) 0 mm0 mm 19.3 °C 19.8 °C 19.4 °C 16530 m 0   0 min 0 W/m² 1023.1 hPa
03:30 11.5 °C 11.2 °C 98 % 3 km/h (4 km/h) 0 mm0 mm 19.3 °C 19.8 °C 19.5 °C 18000 m 0   0 min 0 W/m² 1023.1 hPa
03:24 11.6 °C 11.3 °C 98 % 3 km/h (4 km/h) 0 mm0 mm 19.3 °C 19.8 °C 19.5 °C 18350 m 0   0 min 0 W/m² 1023.1 hPa
03:18 12.1 °C 11.9 °C 99 % 3 km/h (4 km/h) 0 mm0 mm 19.4 °C 19.8 °C 19.5 °C 17520 m 0   0 min 0 W/m² 1023.1 hPa
03:12 12.3 °C 12.1 °C 99 % 2 km/h (3 km/h) 0 mm0 mm 19.4 °C 19.8 °C 19.5 °C 15140 m 0   0 min 0 W/m² 1023.1 hPa
03:06 12.2 °C 12 °C 99 % 2 km/h (4 km/h) 0 mm0 mm 19.5 °C 19.8 °C 19.4 °C 13930 m 0   0 min 0 W/m² 1023.1 hPa
03:00 12 °C 11.7 °C 98 % 4 km/h (6 km/h) 0 mm0 mm 19.5 °C 19.8 °C 19.5 °C 16490 m 0   0 min 0 W/m² 1023.1 hPa
02:54 12.2 °C 11.9 °C 98 % 5 km/h (6 km/h) 0 mm0 mm 19.5 °C 19.8 °C 19.5 °C 17900 m 0   0 min 0 W/m² 1023 hPa
02:48 12.2 °C 11.9 °C 98 % 5 km/h (6 km/h) 0 mm0 mm 19.5 °C 19.9 °C 19.5 °C 17950 m 0   0 min 0 W/m² 1023 hPa
02:42 12.1 °C 11.8 °C 98 % 5 km/h (6 km/h) 0 mm0 mm 19.6 °C 19.9 °C 19.5 °C 19530 m 0   0 min 0 W/m² 1023 hPa
02:36 12.2 °C 11.9 °C 98 % 3 km/h (5 km/h) 0 mm0 mm 19.6 °C 19.9 °C 19.5 °C 19340 m 0   0 min 0 W/m² 1023 hPa
02:30 11.9 °C 11.3 °C 96 % 4 km/h (5 km/h) 0 mm0 mm 19.6 °C 19.9 °C 19.4 °C 19840 m 0   0 min 0 W/m² 1023 hPa
02:24 12.1 °C 11.5 °C 96 % 5 km/h (6 km/h) 0 mm0 mm 19.7 °C 19.9 °C 19.5 °C 45560 m 0   0 min 0 W/m² 1023.1 hPa
02:18 12.1 °C 11.3 °C 95 % 6 km/h (8 km/h) 0 mm0 mm 19.7 °C 19.9 °C 19.5 °C 54420 m 0   0 min 0 W/m² 1023.1 hPa
02:12 12.3 °C 11.5 °C 95 % 7 km/h (8 km/h) 0 mm0 mm 19.7 °C 19.9 °C 19.5 °C 59730 m 0   0 min 0 W/m² 1023.1 hPa
02:06 12.4 °C 11.6 °C 95 % 7 km/h (9 km/h) 0 mm0 mm 19.7 °C 19.9 °C 19.5 °C 56820 m 0   0 min 0 W/m² 1023.2 hPa
02:00 12.6 °C 11.8 °C 95 % 8 km/h (9 km/h) 0 mm0 mm 19.8 °C 20 °C 19.5 °C 51690 m 0   0 min 0 W/m² 1023.2 hPa
01:54 12.5 °C 11.7 °C 95 % 8 km/h (9 km/h) 0 mm0 mm 19.8 °C 20 °C 19.5 °C 51680 m 0   0 min 0 W/m² 1023.2 hPa
01:48 12.5 °C 11.7 °C 95 % 8 km/h (9 km/h) 0 mm0 mm 19.8 °C 20 °C 19.4 °C 53740 m 0   0 min 0 W/m² 1023.2 hPa
01:42 12.5 °C 11.7 °C 95 % 8 km/h (9 km/h) 0 mm0 mm 19.8 °C 20 °C 19.5 °C 54440 m 0   0 min 0 W/m² 1023.2 hPa
01:36 12.7 °C 11.9 °C 95 % 8 km/h (10 km/h) 0 mm0 mm 19.8 °C 20 °C 19.5 °C 48690 m 0   0 min 0 W/m² 1023.2 hPa
01:30 12.7 °C 11.8 °C 94 % 7 km/h (10 km/h) 0 mm0 mm 19.9 °C 20 °C 19.5 °C 44770 m 0   0 min 0 W/m² 1023.2 hPa
01:24 12.8 °C 11.9 °C 94 % 8 km/h (10 km/h) 0 mm0 mm 19.9 °C 20 °C 19.5 °C 46200 m 0   0 min 0 W/m² 1023.2 hPa
01:18 12.9 °C 12 °C 94 % 8 km/h (10 km/h) 0 mm0 mm 19.9 °C 20 °C 19.5 °C 50800 m 0   0 min 0 W/m² 1023.2 hPa
01:12 12.6 °C 11.3 °C 92 % 8 km/h (9 km/h) 0 mm0 mm 20 °C 20 °C 19.4 °C 52190 m 0   0 min 0 W/m² 1023.3 hPa
01:06 12.8 °C 11.4 °C 91 % 8 km/h (9 km/h) 0 mm0 mm 20 °C 20.1 °C 19.5 °C 52510 m 0   0 min 0 W/m² 1023.4 hPa
01:00 13.2 °C 11.8 °C 91 % 9 km/h (10 km/h) 0 mm0 mm 20 °C 20.1 °C 19.5 °C 50800 m 0   0 min 0 W/m² 1023.3 hPa
00:54 13.4 °C 12 °C 91 % 9 km/h (10 km/h) 0 mm0 mm 20 °C 20.1 °C 19.5 °C 48190 m 0   0 min 0 W/m² 1023.3 hPa
00:48 13.9 °C 12.3 °C 90 % 9 km/h (10 km/h) 0 mm0 mm 20.1 °C 20.1 °C 19.5 °C 48060 m 0   0 min 0 W/m² 1023.3 hPa
00:42 14.3 °C 13 °C 92 % 9 km/h (10 km/h) 0 mm0 mm 20.1 °C 20.1 °C 19.5 °C 47520 m 0   0 min 0 W/m² 1023.3 hPa
00:36 14.1 °C 12.8 °C 92 % 9 km/h (10 km/h) 0 mm0 mm 20.1 °C 20.1 °C 19.4 °C 47370 m 0   0 min 0 W/m² 1023.3 hPa
00:30 14 °C 12.7 °C 92 % 9 km/h (10 km/h) 0 mm0 mm 20.1 °C 20.1 °C 19.5 °C 47080 m 0   0 min 0 W/m² 1023.3 hPa
00:24 14 °C 12.4 °C 90 % 9 km/h (10 km/h) 0 mm0 mm 20.2 °C 20.1 °C 19.5 °C 47210 m 0   0 min 0 W/m² 1023.3 hPa
00:18 14.2 °C 12.6 °C 90 % 9 km/h (12 km/h) 0 mm0 mm 20.2 °C 20.1 °C 19.4 °C 47250 m 0   0 min 0 W/m² 1023.3 hPa
00:12 14.3 °C 12.7 °C 90 % 9 km/h (12 km/h) 0 mm0 mm 20.2 °C 20.1 °C 19.5 °C 46520 m 0   0 min 0 W/m² 1023.4 hPa
00:06 14.5 °C 12.9 °C 90 % 9 km/h (11 km/h) 0 mm0 mm 20.2 °C 20.1 °C 19.5 °C 45720 m 0   0 min 0 W/m² 1023.4 hPa
00:00 14.6 °C 13 °C 90 % 9 km/h (13 km/h) 0 mm0 mm 20.3 °C 20.2 °C 19.5 °C 45900 m 0   0 min 0 W/m² 1023.4 hPa

Données via Météo-France

Relevés météo à Quimper

Cette page rassemble les observations de la station de Quimper : température, humidité, vent, précipitations et pression atmosphérique. Les graphiques facilitent le suivi de la journée, tandis que le tableau donne accès aux mesures horaires et infra-horaires disponibles.

Pour replacer ces mesures dans leur contexte, consultez la climatologie de Quimper ainsi que ses normales et records. Retrouvez aussi la carte des observations météo en temps réel.